Time;durP1;ratioP1;P1;durP2;ratioP2;P2;SDS_P1;SDS_P2;PMS_P1;PMS_P2;Temp;Humidity;BMP_temperature;BMP_pressure;BME280_temperature;BME280_humidity;BME280_pressure;Samples;Min_cycle;Max_cycle;Signal;HPM_P1;HPM_P2
2024/03/05 00:01:39;;;;;;;79.10;39.95;;;8.60;99.90;;;;;;5060985;28;20033;-75
2024/03/05 00:04:05;;;;;;;80.22;39.42;;;8.60;99.90;;;;;;5059626;28;20104;-75
2024/03/05 00:06:35;;;;;;;82.18;40.25;;;8.60;99.90;;;;;;5061681;28;20029;-75
2024/03/05 00:09:01;;;;;;;77.00;38.63;;;8.50;99.90;;;;;;5060312;28;20068;-74
2024/03/05 00:11:28;;;;;;;74.90;38.95;;;8.50;99.90;;;;;;5060665;28;20060;-75
2024/03/05 00:13:59;;;;;;;83.20;38.65;;;8.60;99.90;;;;;;5061237;28;20474;-73
2024/03/05 00:16:25;;;;;;;71.32;37.03;;;8.60;99.90;;;;;;5060166;28;20025;-75
2024/03/05 00:18:50;;;;;;;72.93;33.17;;;8.50;99.90;;;;;;5061662;28;20029;-73
2024/03/05 00:21:16;;;;;;;67.30;33.08;;;8.50;99.90;;;;;;5059645;28;20029;-74
2024/03/05 00:23:42;;;;;;;65.90;33.35;;;8.40;99.90;;;;;;5061852;28;20025;-74
2024/03/05 00:26:08;;;;;;;57.95;31.52;;;8.40;99.90;;;;;;5060907;28;20037;-75
2024/03/05 00:28:34;;;;;;;54.75;30.25;;;8.30;99.90;;;;;;5061260;28;20021;-75
2024/03/05 00:30:59;;;;;;;61.70;31.63;;;8.30;99.90;;;;;;5059547;28;20021;-76
2024/03/05 00:33:25;;;;;;;60.13;30.58;;;8.30;99.90;;;;;;5059944;28;20509;-76
2024/03/05 00:35:51;;;;;;;60.20;29.77;;;8.30;99.90;;;;;;5061699;28;20029;-75
2024/03/05 00:38:18;;;;;;;63.00;30.38;;;8.30;99.90;;;;;;5061811;28;20033;-75
2024/03/05 00:40:43;;;;;;;51.38;27.48;;;8.30;99.90;;;;;;5061481;28;20093;-75
2024/03/05 00:43:09;;;;;;;51.92;27.73;;;8.20;99.90;;;;;;5061677;28;20021;-75
2024/03/05 00:45:35;;;;;;;55.83;28.13;;;8.20;99.90;;;;;;5061447;28;20033;-74
2024/03/05 00:48:01;;;;;;;53.67;28.25;;;8.10;99.90;;;;;;5060078;28;20031;-74
2024/03/05 00:50:27;;;;;;;56.47;27.15;;;8.10;99.90;;;;;;5060322;28;20029;-75
2024/03/05 00:52:53;;;;;;;53.17;26.40;;;8.10;99.90;;;;;;5060593;28;20064;-76
2024/03/05 00:55:19;;;;;;;53.63;26.60;;;8.10;99.90;;;;;;5059089;28;20091;-75
2024/03/05 00:57:45;;;;;;;54.42;26.70;;;8.00;99.90;;;;;;5059981;28;20025;-74
2024/03/05 01:00:13;;;;;;;52.65;26.75;;;8.00;99.90;;;;;;5060318;28;20025;-75
2024/03/05 01:02:42;;;;;;;55.13;27.10;;;8.00;99.90;;;;;;5061048;28;20028;-75
2024/03/05 01:05:09;;;;;;;58.65;26.17;;;8.00;99.90;;;;;;5063538;28;20041;-74
2024/03/05 01:07:36;;;;;;;57.85;27.67;;;8.00;99.90;;;;;;5064678;28;20017;-75
2024/03/05 01:10:04;;;;;;;48.88;26.17;;;7.90;99.90;;;;;;5063653;28;20452;-73
2024/03/05 01:12:30;;;;;;;52.20;26.48;;;7.90;99.90;;;;;;5063619;28;20032;-79
2024/03/05 01:14:55;;;;;;;50.30;26.60;;;7.90;99.90;;;;;;5065023;28;20401;-74
2024/03/05 01:17:21;;;;;;;57.47;26.08;;;7.80;99.90;;;;;;5063744;28;20021;-75
2024/03/05 01:19:46;;;;;;;51.08;26.30;;;7.70;99.90;;;;;;5064327;28;20457;-75
2024/03/05 01:22:12;;;;;;;54.28;27.27;;;7.70;99.90;;;;;;5060355;28;20047;-75
2024/03/05 01:24:38;;;;;;;48.78;25.90;;;7.70;99.90;;;;;;5063139;28;20041;-74
2024/03/05 01:27:04;;;;;;;48.78;25.67;;;7.70;99.90;;;;;;5063173;28;20078;-76
2024/03/05 01:29:30;;;;;;;53.17;25.20;;;7.70;99.90;;;;;;5063563;28;20027;-75
2024/03/05 01:31:58;;;;;;;49.10;24.55;;;7.70;99.90;;;;;;5061962;28;20060;-75
2024/03/05 01:34:24;;;;;;;50.20;25.42;;;7.70;99.90;;;;;;5061740;28;20063;-74
2024/03/05 01:36:50;;;;;;;51.38;24.42;;;7.70;99.90;;;;;;5063925;28;20017;-74
2024/03/05 01:39:17;;;;;;;42.38;23.98;;;7.70;99.90;;;;;;5063736;28;20032;-75
2024/03/05 01:41:44;;;;;;;52.05;25.20;;;7.70;99.90;;;;;;5062323;28;20033;-75
2024/03/05 01:44:13;;;;;;;50.05;25.80;;;7.70;99.90;;;;;;5061661;28;20025;-74
2024/03/05 01:46:39;;;;;;;49.72;25.38;;;7.70;99.90;;;;;;5061106;28;20102;-75
2024/03/05 01:49:07;;;;;;;52.67;25.23;;;7.70;99.90;;;;;;5062111;28;20432;-74
2024/03/05 01:51:32;;;;;;;49.13;24.67;;;7.70;99.90;;;;;;5063339;28;20469;-74
2024/03/05 01:53:58;;;;;;;48.53;25.63;;;7.70;99.90;;;;;;5063315;28;20025;-75
2024/03/05 01:56:24;;;;;;;54.30;24.90;;;7.70;99.90;;;;;;5062913;28;20048;-75
2024/03/05 01:58:51;;;;;;;46.70;24.65;;;7.60;99.90;;;;;;5062287;28;20036;-75
2024/03/05 02:01:16;;;;;;;49.17;24.45;;;7.60;99.90;;;;;;5062757;28;20120;-75
2024/03/05 02:03:42;;;;;;;52.08;24.98;;;7.60;99.90;;;;;;5062331;28;20105;-75
2024/03/05 02:06:10;;;;;;;46.63;24.70;;;7.50;99.90;;;;;;5063286;28;20033;-74
2024/03/05 02:08:37;;;;;;;48.05;24.45;;;7.50;99.90;;;;;;5062853;28;20048;-76
2024/03/05 02:11:03;;;;;;;49.33;24.48;;;7.50;99.90;;;;;;5061908;28;20547;-75
2024/03/05 02:13:29;;;;;;;50.40;23.95;;;7.50;99.90;;;;;;5060453;28;20029;-74
2024/03/05 02:15:54;;;;;;;42.10;22.88;;;7.50;99.90;;;;;;5059205;28;20036;-74
2024/03/05 02:18:20;;;;;;;48.97;23.63;;;7.50;99.90;;;;;;5063048;28;20779;-74
2024/03/05 02:20:46;;;;;;;45.15;23.25;;;7.50;99.90;;;;;;5061452;28;20017;-75
2024/03/05 02:23:12;;;;;;;50.55;23.95;;;7.50;99.90;;;;;;5062028;28;20515;-75
2024/03/05 02:25:37;;;;;;;48.80;23.52;;;7.50;99.90;;;;;;5061629;28;20538;-74
2024/03/05 02:28:03;;;;;;;49.25;24.17;;;7.50;99.90;;;;;;5061411;28;20028;-74
2024/03/05 02:30:29;;;;;;;48.08;22.83;;;7.50;99.90;;;;;;5061306;28;20021;-75
2024/03/05 02:32:57;;;;;;;47.63;23.02;;;7.50;99.90;;;;;;5060224;28;20078;-74
2024/03/05 02:35:23;;;;;;;47.05;23.52;;;7.40;99.90;;;;;;5063507;28;20104;-72
2024/03/05 02:37:49;;;;;;;44.78;22.95;;;7.30;99.90;;;;;;5063490;28;20033;-73
2024/03/05 02:40:15;;;;;;;47.25;23.52;;;7.30;99.90;;;;;;5062022;28;20032;-74
2024/03/05 02:42:41;;;;;;;45.85;21.75;;;7.30;99.90;;;;;;5061567;28;20032;-73
2024/03/05 02:45:10;;;;;;;45.95;22.85;;;7.30;99.90;;;;;;5063374;28;20032;-73
2024/03/05 02:47:39;;;;;;;42.25;22.67;;;7.30;99.90;;;;;;5062850;28;20024;-73
2024/03/05 02:50:07;;;;;;;43.08;22.70;;;7.30;99.90;;;;;;5061646;28;20049;-73
2024/03/05 02:52:33;;;;;;;51.33;23.45;;;7.30;99.90;;;;;;5062848;28;20025;-73
2024/03/05 02:54:59;;;;;;;44.55;23.13;;;7.30;99.90;;;;;;5062940;28;20017;-75
2024/03/05 02:57:24;;;;;;;43.20;23.23;;;7.30;99.90;;;;;;5063178;28;20032;-73
2024/03/05 02:59:51;;;;;;;49.97;23.23;;;7.30;99.90;;;;;;5063100;28;20024;-73
2024/03/05 03:02:17;;;;;;;47.67;23.38;;;7.30;99.90;;;;;;5061561;28;20033;-73
2024/03/05 03:04:43;;;;;;;44.30;22.80;;;7.30;99.90;;;;;;5062820;28;20044;-74
2024/03/05 03:07:10;;;;;;;46.90;23.42;;;7.20;99.90;;;;;;5060643;28;20053;-73
2024/03/05 03:09:35;;;;;;;45.63;23.30;;;7.20;99.90;;;;;;5059348;28;20190;-73
2024/03/05 03:12:02;;;;;;;49.28;24.27;;;7.20;99.90;;;;;;5061116;28;20116;-73
2024/03/05 03:14:28;;;;;;;49.22;22.83;;;7.20;99.90;;;;;;5062292;28;20017;-74
2024/03/05 03:16:55;;;;;;;48.95;23.30;;;7.20;99.90;;;;;;5058540;28;20472;-73
2024/03/05 03:19:22;;;;;;;53.20;25.25;;;7.10;99.90;;;;;;5062961;28;21490;-73
2024/03/05 03:21:48;;;;;;;48.15;24.27;;;7.10;99.90;;;;;;5059070;28;20053;-73
2024/03/05 03:24:14;;;;;;;56.25;25.33;;;7.10;99.90;;;;;;5059938;28;20039;-71
2024/03/05 03:26:39;;;;;;;56.25;24.17;;;7.10;99.90;;;;;;5060945;28;20574;-73
2024/03/05 03:29:11;;;;;;;57.50;24.08;;;7.00;99.90;;;;;;5062548;28;20478;-73
2024/03/05 03:31:39;;;;;;;54.50;25.63;;;7.00;99.90;;;;;;5061764;28;20017;-72
2024/03/05 03:34:05;;;;;;;51.85;24.60;;;6.90;99.90;;;;;;5059313;28;20021;-73
2024/03/05 03:36:33;;;;;;;58.58;25.63;;;6.90;99.90;;;;;;5060190;28;20039;-74
2024/03/05 03:38:58;;;;;;;52.25;25.38;;;6.90;99.90;;;;;;5060785;28;20033;-73
2024/03/05 03:41:24;;;;;;;55.55;26.13;;;6.80;99.90;;;;;;5062670;28;20021;-72
2024/03/05 03:43:50;;;;;;;52.03;26.38;;;6.80;99.90;;;;;;5062185;28;20021;-73
2024/03/05 03:46:15;;;;;;;53.67;26.92;;;6.80;99.90;;;;;;5061894;28;20040;-73
2024/03/05 03:48:41;;;;;;;52.50;26.50;;;6.80;99.90;;;;;;5061016;28;20033;-72
2024/03/05 03:51:07;;;;;;;54.53;27.30;;;6.80;99.90;;;;;;5060619;28;20424;-73
2024/03/05 03:53:36;;;;;;;54.92;25.92;;;6.80;99.90;;;;;;5061805;28;20021;-73
2024/03/05 03:56:03;;;;;;;61.25;27.05;;;6.90;99.90;;;;;;5060384;28;20116;-73
2024/03/05 03:58:30;;;;;;;56.15;25.70;;;6.80;99.90;;;;;;5059555;28;20458;-73
2024/03/05 04:00:56;;;;;;;57.35;25.05;;;6.80;99.90;;;;;;5060746;28;20025;-74
2024/03/05 04:03:21;;;;;;;46.80;25.40;;;6.70;99.90;;;;;;5060926;28;20162;-75
2024/03/05 04:05:47;;;;;;;47.55;25.50;;;6.60;99.90;;;;;;5059390;28;20596;-72
2024/03/05 04:08:12;;;;;;;50.72;25.25;;;6.70;99.90;;;;;;5060446;28;20029;-74
2024/03/05 04:10:38;;;;;;;52.83;26.08;;;6.60;99.90;;;;;;5061617;28;20041;-74
2024/03/05 04:13:04;;;;;;;51.97;24.95;;;6.60;99.90;;;;;;5061451;28;20025;-72
2024/03/05 04:15:30;;;;;;;48.72;24.77;;;6.60;99.90;;;;;;5061470;28;20063;-74
2024/03/05 04:17:57;;;;;;;58.78;26.20;;;6.60;99.90;;;;;;5061945;28;20033;-73
2024/03/05 04:20:23;;;;;;;52.38;25.85;;;6.50;99.90;;;;;;5060485;28;20035;-73
2024/03/05 04:22:49;;;;;;;49.88;25.80;;;6.50;99.90;;;;;;5062068;28;20021;-74
2024/03/05 04:25:14;;;;;;;50.60;25.55;;;6.50;99.90;;;;;;5060520;28;20044;-72
2024/03/05 04:27:45;;;;;;;51.90;25.58;;;6.50;99.90;;;;;;5060291;28;20029;-72
2024/03/05 04:30:13;;;;;;;52.22;25.38;;;6.50;99.90;;;;;;5061573;28;20024;-71
2024/03/05 04:32:53;;;;;;;48.83;25.58;;;6.50;99.90;;;;;;5054940;28;20036;-72
2024/03/05 04:35:19;;;;;;;54.25;25.63;;;6.40;99.90;;;;;;5061816;28;20029;-72
2024/03/05 04:37:45;;;;;;;52.75;25.63;;;6.40;99.90;;;;;;5061868;28;20107;-74
2024/03/05 04:40:12;;;;;;;52.97;24.90;;;6.40;99.90;;;;;;5065722;28;20028;-73
2024/03/05 04:42:38;;;;;;;50.60;25.85;;;6.40;99.90;;;;;;5063234;28;20021;-73
2024/03/05 04:45:05;;;;;;;50.17;25.30;;;6.50;99.90;;;;;;5060859;28;20087;-73
2024/03/05 04:47:31;;;;;;;51.83;24.77;;;6.40;99.90;;;;;;5065226;28;20083;-73
2024/03/05 04:49:57;;;;;;;51.08;24.30;;;6.50;99.90;;;;;;5065410;28;20021;-73
2024/03/05 04:52:23;;;;;;;48.70;23.67;;;6.40;99.90;;;;;;5064733;28;20048;-73
2024/03/05 04:54:48;;;;;;;52.42;24.73;;;6.40;99.90;;;;;;5065391;28;20025;-72
2024/03/05 04:57:14;;;;;;;49.58;25.75;;;6.40;99.90;;;;;;5065371;28;20537;-74
2024/03/05 04:59:41;;;;;;;56.15;25.85;;;6.40;99.90;;;;;;5060313;28;20036;-73
2024/03/05 05:02:06;;;;;;;51.38;26.38;;;6.50;99.90;;;;;;5059522;28;20037;-75
2024/03/05 05:04:37;;;;;;;50.17;24.85;;;6.50;99.90;;;;;;5061685;28;20049;-73
2024/03/05 05:07:05;;;;;;;52.22;25.55;;;6.40;99.90;;;;;;5059951;28;20029;-74
2024/03/05 05:09:31;;;;;;;56.40;25.40;;;6.50;99.90;;;;;;5062754;28;20064;-74
2024/03/05 05:11:57;;;;;;;53.30;25.58;;;6.50;99.90;;;;;;5063814;28;20025;-73
2024/03/05 05:14:22;;;;;;;50.05;25.42;;;6.40;99.90;;;;;;5062861;28;20029;-73
2024/03/05 05:16:48;;;;;;;53.53;25.58;;;6.40;99.90;;;;;;5063294;28;20021;-72
2024/03/05 05:19:16;;;;;;;55.35;26.77;;;6.40;99.90;;;;;;5062563;28;20041;-73
2024/03/05 05:21:45;;;;;;;58.40;26.73;;;6.40;99.90;;;;;;5063564;28;20407;-72
2024/03/05 05:24:10;;;;;;;55.08;25.48;;;6.40;99.90;;;;;;5061166;28;20036;-73
2024/03/05 05:26:36;;;;;;;54.63;25.10;;;6.30;99.90;;;;;;5064789;28;20045;-72
2024/03/05 05:29:02;;;;;;;54.78;25.73;;;6.40;99.90;;;;;;5062864;28;20032;-72
2024/03/05 05:31:27;;;;;;;51.03;25.80;;;6.30;99.90;;;;;;5062865;28;20063;-74
2024/03/05 05:33:55;;;;;;;55.15;25.75;;;6.30;99.90;;;;;;5063411;28;20029;-74
2024/03/05 05:36:20;;;;;;;57.53;26.92;;;6.30;99.90;;;;;;5065024;28;20094;-72
2024/03/05 05:38:48;;;;;;;61.58;25.88;;;6.30;99.90;;;;;;5062817;28;20017;-72
2024/03/05 05:41:14;;;;;;;57.50;25.10;;;6.30;99.90;;;;;;5063331;28;20032;-73
2024/03/05 05:43:40;;;;;;;55.53;25.42;;;6.30;99.90;;;;;;5062123;28;20144;-73
2024/03/05 05:46:14;;;;;;;57.20;25.38;;;6.20;99.90;;;;;;5063967;28;20025;-73
2024/03/05 05:48:42;;;;;;;54.50;25.25;;;6.30;99.90;;;;;;5064106;28;20048;-72
2024/03/05 05:51:10;;;;;;;61.95;26.13;;;6.30;99.90;;;;;;5062655;28;20027;-71
2024/03/05 05:53:36;;;;;;;54.70;25.50;;;6.20;99.90;;;;;;5059699;28;20049;-73
2024/03/05 05:56:02;;;;;;;55.38;24.85;;;6.30;99.90;;;;;;5062645;28;20409;-73
2024/03/05 05:58:27;;;;;;;49.60;25.73;;;6.30;99.90;;;;;;5058035;28;20397;-74
2024/03/05 06:00:53;;;;;;;57.38;26.02;;;6.20;99.90;;;;;;5058690;28;20416;-73
2024/03/05 06:03:19;;;;;;;51.00;25.30;;;6.30;99.90;;;;;;5061507;28;20022;-74
2024/03/05 06:05:46;;;;;;;52.85;26.38;;;6.20;99.90;;;;;;5061386;28;20052;-72
2024/03/05 06:08:14;;;;;;;50.28;25.52;;;6.20;99.90;;;;;;5063249;28;20028;-72
2024/03/05 06:10:43;;;;;;;50.92;25.50;;;6.20;99.90;;;;;;5061314;28;20037;-72
2024/03/05 06:13:09;;;;;;;59.92;27.60;;;6.30;99.90;;;;;;5063358;28;20096;-72
2024/03/05 06:15:38;;;;;;;63.88;28.02;;;6.30;99.90;;;;;;5061539;28;20507;-72
2024/03/05 06:18:05;;;;;;;54.42;26.45;;;6.30;99.90;;;;;;5062513;28;20025;-74
2024/03/05 06:20:31;;;;;;;62.00;28.35;;;6.30;99.90;;;;;;5061507;28;20024;-74
2024/03/05 06:22:58;;;;;;;53.53;27.30;;;6.30;99.90;;;;;;5073715;28;20041;-74
2024/03/05 06:25:24;;;;;;;59.72;27.25;;;6.30;99.90;;;;;;5061900;28;20037;-74
2024/03/05 06:27:50;;;;;;;60.90;28.42;;;6.30;99.90;;;;;;5060201;28;20031;-73
2024/03/05 06:30:17;;;;;;;60.15;29.23;;;6.30;99.90;;;;;;5058602;28;20025;-72
2024/03/05 06:32:48;;;;;;;52.47;26.65;;;6.20;99.90;;;;;;5060523;28;20031;-72
2024/03/05 06:35:18;;;;;;;59.95;28.02;;;6.20;99.90;;;;;;5061880;28;20032;-73
2024/03/05 06:37:45;;;;;;;62.15;29.00;;;6.10;99.90;;;;;;5062430;28;20025;-71
2024/03/05 06:40:12;;;;;;;65.32;30.70;;;6.20;99.90;;;;;;5062978;28;20087;-73
2024/03/05 06:42:39;;;;;;;62.60;30.83;;;6.20;99.90;;;;;;5063135;28;20017;-73
2024/03/05 06:45:08;;;;;;;68.25;30.25;;;6.20;99.90;;;;;;5062585;28;20039;-74
2024/03/05 06:47:44;;;;;;;66.00;29.52;;;6.20;99.90;;;;;;5061614;28;20017;-72
2024/03/05 06:50:19;;;;;;;69.47;30.33;;;6.10;99.90;;;;;;5063149;28;20204;-73
2024/03/05 06:58:14;;;;;;;69.05;32.08;;;6.10;99.90;;;;;;5062956;28;20040;-72
2024/03/05 07:00:40;;;;;;;73.85;30.85;;;6.00;99.90;;;;;;5062253;28;20033;-73
2024/03/05 07:03:06;;;;;;;64.32;30.83;;;6.00;99.90;;;;;;5061241;28;20029;-73
2024/03/05 07:05:32;;;;;;;65.75;30.63;;;6.00;99.90;;;;;;5062607;28;20037;-72
2024/03/05 07:08:00;;;;;;;70.07;31.15;;;6.00;99.90;;;;;;5063028;28;20444;-72
2024/03/05 07:10:27;;;;;;;65.95;32.13;;;6.00;99.90;;;;;;5061217;28;20064;-72
2024/03/05 07:12:55;;;;;;;65.80;31.38;;;6.00;99.90;;;;;;5062751;28;20107;-73
2024/03/05 07:15:21;;;;;;;64.35;30.08;;;6.00;99.90;;;;;;5062552;28;20017;-73
2024/03/05 07:17:48;;;;;;;71.40;32.53;;;6.10;99.90;;;;;;5062512;28;20112;-72
2024/03/05 07:20:24;;;;;;;67.05;30.50;;;6.00;99.90;;;;;;5062007;28;20078;-73
2024/03/05 07:22:51;;;;;;;62.28;31.30;;;6.00;99.90;;;;;;5061501;28;20567;-73
2024/03/05 07:25:17;;;;;;;67.32;32.15;;;6.00;99.90;;;;;;5060354;28;20041;-73
2024/03/05 07:27:47;;;;;;;71.40;30.77;;;5.90;99.90;;;;;;5062498;28;20040;-73
2024/03/05 07:30:17;;;;;;;67.82;31.38;;;6.00;99.90;;;;;;5060793;28;20103;-73
2024/03/05 07:32:49;;;;;;;70.80;33.60;;;5.90;99.90;;;;;;5060392;28;20466;-72
2024/03/05 07:35:17;;;;;;;67.40;33.13;;;6.00;99.90;;;;;;5062523;28;20025;-72
2024/03/05 07:37:46;;;;;;;65.38;31.90;;;6.00;99.90;;;;;;5062391;28;20059;-73
2024/03/05 07:40:17;;;;;;;69.40;32.42;;;6.10;99.90;;;;;;5060443;28;20079;-73
2024/03/05 07:42:47;;;;;;;74.15;34.05;;;6.10;99.90;;;;;;5061930;28;20053;-74
2024/03/05 07:45:16;;;;;;;67.63;31.48;;;6.10;99.90;;;;;;5060708;28;20061;-73
2024/03/05 07:47:43;;;;;;;73.63;33.50;;;6.10;99.90;;;;;;5060254;28;20075;-73
2024/03/05 07:50:12;;;;;;;70.03;33.08;;;6.00;99.90;;;;;;5062412;28;20036;-73
2024/03/05 07:52:42;;;;;;;72.82;34.15;;;6.10;99.90;;;;;;5061699;28;20029;-73
2024/03/05 07:55:09;;;;;;;68.10;32.70;;;6.10;99.90;;;;;;5062209;28;20115;-73
2024/03/05 07:57:38;;;;;;;65.05;30.77;;;6.00;99.90;;;;;;5061903;28;20021;-73
2024/03/05 08:00:14;;;;;;;66.43;32.55;;;6.10;99.90;;;;;;5059944;28;20025;-72
2024/03/05 08:02:44;;;;;;;79.00;33.65;;;6.10;99.90;;;;;;5062225;28;20053;-73
2024/03/05 08:05:17;;;;;;;74.80;33.15;;;6.10;99.90;;;;;;5060821;28;20044;-71
2024/03/05 08:07:45;;;;;;;76.90;34.22;;;6.00;99.90;;;;;;5061009;28;20025;-72
2024/03/05 08:10:12;;;;;;;63.40;32.05;;;6.10;99.90;;;;;;5061827;28;20052;-72
2024/03/05 08:12:39;;;;;;;70.38;33.60;;;6.10;99.90;;;;;;5063250;28;20067;-73
2024/03/05 08:15:15;;;;;;;71.55;34.20;;;6.10;99.90;;;;;;5065640;28;20021;-72
2024/03/05 08:17:45;;;;;;;64.45;32.60;;;6.00;99.90;;;;;;5064613;28;20040;-72
2024/03/05 08:20:12;;;;;;;63.83;32.08;;;6.10;99.90;;;;;;5065767;28;20036;-72
2024/03/05 08:22:38;;;;;;;69.38;33.55;;;6.00;99.90;;;;;;5065271;28;20024;-73
2024/03/05 08:25:09;;;;;;;69.65;33.80;;;6.00;99.90;;;;;;5064755;28;20397;-73
2024/03/05 08:27:56;;;;;;;67.70;32.92;;;6.10;99.90;;;;;;5065570;28;20036;-72
2024/03/05 08:30:24;;;;;;;67.78;31.95;;;6.10;99.90;;;;;;5065973;28;20029;-72
2024/03/05 08:32:51;;;;;;;64.55;31.75;;;6.10;99.90;;;;;;5065616;28;20021;-72
2024/03/05 08:35:17;;;;;;;69.72;33.95;;;6.10;99.90;;;;;;5065197;28;20017;-73
2024/03/05 08:37:45;;;;;;;66.00;31.90;;;6.10;99.90;;;;;;5064316;28;20028;-72
2024/03/05 08:40:15;;;;;;;63.42;31.92;;;6.10;99.90;;;;;;5065686;28;20033;-72
2024/03/05 08:42:49;;;;;;;62.08;30.67;;;6.10;99.90;;;;;;5064902;28;20021;-73
2024/03/05 08:45:19;;;;;;;63.53;32.33;;;6.00;99.90;;;;;;5065800;28;20025;-71
2024/03/05 08:47:47;;;;;;;65.95;31.85;;;6.10;99.90;;;;;;5065256;28;20072;-73
2024/03/05 08:50:13;;;;;;;63.33;31.15;;;6.10;99.90;;;;;;5065290;28;20024;-72
2024/03/05 08:52:43;;;;;;;64.03;31.48;;;6.10;99.90;;;;;;5065334;28;20017;-72
2024/03/05 08:55:10;;;;;;;56.67;29.60;;;6.10;99.90;;;;;;5063607;28;20413;-72
2024/03/05 08:57:37;;;;;;;64.28;30.52;;;6.10;99.90;;;;;;5065149;28;20056;-72
2024/03/05 09:00:04;;;;;;;62.22;30.27;;;6.10;99.90;;;;;;5065214;28;20386;-73
2024/03/05 09:02:30;;;;;;;61.42;29.80;;;6.20;99.90;;;;;;5064411;28;20079;-73
2024/03/05 09:04:56;;;;;;;62.75;30.30;;;6.20;99.90;;;;;;5064769;28;20052;-73
2024/03/05 09:07:22;;;;;;;56.25;28.50;;;6.30;99.90;;;;;;5065420;28;20071;-73
2024/03/05 09:09:47;;;;;;;59.22;28.85;;;6.30;99.90;;;;;;5064627;28;20118;-72
2024/03/05 09:12:14;;;;;;;61.72;28.38;;;6.30;99.90;;;;;;5065144;28;20025;-72
2024/03/05 09:14:41;;;;;;;53.55;27.50;;;6.40;99.90;;;;;;5063013;28;20100;-73
2024/03/05 09:17:09;;;;;;;55.08;28.02;;;6.40;99.90;;;;;;5064700;28;20043;-72
2024/03/05 09:19:35;;;;;;;59.95;27.45;;;6.50;99.90;;;;;;5064512;28;20021;-72
2024/03/05 09:22:04;;;;;;;57.95;28.05;;;6.40;99.90;;;;;;5064622;28;20029;-73
2024/03/05 09:24:30;;;;;;;56.13;27.52;;;6.40;99.90;;;;;;5063492;28;20366;-73
2024/03/05 09:26:56;;;;;;;58.42;27.08;;;6.40;99.90;;;;;;5065031;28;20021;-72
2024/03/05 09:29:21;;;;;;;55.60;27.00;;;6.50;99.90;;;;;;5063638;28;20029;-74
2024/03/05 09:31:47;;;;;;;51.30;26.25;;;6.40;99.90;;;;;;5063209;28;20032;-71
2024/03/05 09:34:12;;;;;;;50.72;26.33;;;6.40;99.90;;;;;;5064796;28;20082;-73
2024/03/05 09:36:39;;;;;;;59.40;27.80;;;6.40;99.90;;;;;;5064417;28;20028;-73
2024/03/05 09:39:09;;;;;;;57.50;27.08;;;6.40;99.90;;;;;;5064363;28;20112;-73
2024/03/05 09:41:40;;;;;;;70.20;27.10;;;6.50;99.90;;;;;;5064581;28;20017;-73
2024/03/05 09:44:07;;;;;;;55.42;26.77;;;6.50;99.90;;;;;;5063899;28;20017;-73
2024/03/05 09:46:36;;;;;;;51.53;25.92;;;6.50;99.90;;;;;;5064257;28;20405;-72
2024/03/05 09:49:03;;;;;;;51.92;26.27;;;6.50;99.90;;;;;;5064276;28;20025;-72
2024/03/05 09:51:29;;;;;;;55.58;26.05;;;6.40;99.90;;;;;;5064302;28;20032;-72
2024/03/05 09:53:56;;;;;;;52.45;26.13;;;6.50;99.90;;;;;;5063889;28;20074;-73
2024/03/05 09:56:22;;;;;;;49.50;25.52;;;6.50;99.90;;;;;;5064486;28;20028;-73
2024/03/05 09:58:48;;;;;;;50.55;24.98;;;6.50;99.90;;;;;;5064006;28;20021;-72
2024/03/05 10:01:14;;;;;;;53.33;26.00;;;6.50;99.90;;;;;;5062886;28;20033;-72
2024/03/05 10:03:41;;;;;;;54.85;25.75;;;6.50;99.90;;;;;;5063696;28;20021;-73
2024/03/05 10:06:07;;;;;;;51.13;25.20;;;6.60;99.90;;;;;;5063768;28;20422;-73
2024/03/05 10:08:33;;;;;;;53.30;25.40;;;6.50;99.90;;;;;;5064151;28;20033;-74
2024/03/05 10:11:04;;;;;;;52.00;25.52;;;6.50;99.90;;;;;;5058699;28;20067;-73
2024/03/05 10:13:35;;;;;;;52.30;25.00;;;6.50;99.90;;;;;;5061052;28;20025;-75
2024/03/05 10:16:17;;;;;;;49.40;25.27;;;6.50;99.90;;;;;;5062594;28;20035;-73
2024/03/05 10:18:44;;;;;;;51.10;26.05;;;6.50;99.90;;;;;;5061635;28;20033;-73
2024/03/05 10:21:21;;;;;;;56.25;25.80;;;6.50;99.90;;;;;;5059657;28;20021;-73
2024/03/05 10:23:55;;;;;;;59.30;26.05;;;6.60;99.90;;;;;;5062545;28;20036;-74
2024/03/05 10:26:24;;;;;;;54.03;25.00;;;6.60;99.90;;;;;;5063265;28;20071;-73
2024/03/05 10:29:02;;;;;;;57.83;25.77;;;6.60;99.90;;;;;;5062006;28;20025;-73
2024/03/05 10:31:28;;;;;;;54.78;26.73;;;6.60;99.90;;;;;;5058761;28;20501;-73
2024/03/05 10:33:56;;;;;;;57.72;25.65;;;6.60;99.90;;;;;;5063275;28;20025;-74
2024/03/05 10:36:45;;;;;;;52.65;25.58;;;6.60;99.90;;;;;;5062291;28;20017;-72
2024/03/05 10:39:12;;;;;;;47.60;24.65;;;6.60;99.90;;;;;;5062225;28;20029;-74
2024/03/05 10:41:39;;;;;;;54.65;24.50;;;6.70;99.90;;;;;;5062926;28;20686;-74
2024/03/05 10:44:10;;;;;;;49.45;25.00;;;6.70;99.90;;;;;;5061942;28;20112;-73
2024/03/05 10:46:38;;;;;;;48.50;25.08;;;6.80;99.90;;;;;;5063001;28;20035;-74
2024/03/05 10:49:05;;;;;;;51.53;25.27;;;6.70;99.90;;;;;;5061134;28;20029;-73
2024/03/05 10:51:37;;;;;;;54.15;25.02;;;6.70;99.90;;;;;;5063109;28;20025;-72
2024/03/05 10:54:07;;;;;;;55.33;24.73;;;6.70;99.90;;;;;;5063017;28;20493;-73
2024/03/05 10:56:36;;;;;;;53.42;25.95;;;6.70;99.90;;;;;;5062634;28;20025;-73
2024/03/05 11:01:51;;;;;;;53.03;25.02;;;6.70;99.90;;;;;;5050019;28;20035;-73
2024/03/05 11:04:21;;;;;;;49.05;25.55;;;6.60;99.90;;;;;;5054570;28;20532;-74
2024/03/05 11:06:52;;;;;;;49.40;25.35;;;6.70;99.90;;;;;;5055007;28;20040;-74
2024/03/05 11:09:22;;;;;;;50.28;24.15;;;6.70;99.90;;;;;;5056510;28;20053;-73
2024/03/05 11:12:00;;;;;;;52.08;25.23;;;6.70;99.90;;;;;;5055951;28;20060;-74
2024/03/05 11:14:27;;;;;;;52.00;24.73;;;6.70;99.90;;;;;;5054590;28;22245;-74
2024/03/05 11:17:03;;;;;;;46.55;24.05;;;6.80;99.90;;;;;;5054446;28;20025;-74
2024/03/05 11:19:30;;;;;;;53.40;25.17;;;6.80;99.90;;;;;;5059252;28;20028;-73
2024/03/05 11:21:58;;;;;;;52.28;24.98;;;6.80;99.90;;;;;;5054110;28;21604;-73
2024/03/05 11:24:24;;;;;;;43.97;23.33;;;6.70;99.90;;;;;;5059679;28;20028;-74
2024/03/05 11:27:01;;;;;;;46.10;23.83;;;6.70;99.90;;;;;;5059443;28;20041;-73
2024/03/05 11:29:30;;;;;;;50.90;24.58;;;6.70;99.90;;;;;;5060266;28;20068;-73
2024/03/05 11:31:58;;;;;;;45.20;23.13;;;6.80;99.90;;;;;;5060062;28;20031;-74
2024/03/05 11:34:27;;;;;;;51.67;24.95;;;6.70;99.90;;;;;;5060922;28;20020;-73
2024/03/05 11:37:09;;;;;;;52.30;23.55;;;6.70;99.90;;;;;;5060470;28;20023;-73
2024/03/05 11:39:43;;;;;;;53.53;23.15;;;6.70;99.90;;;;;;5058947;28;20036;-73
2024/03/05 11:42:20;;;;;;;47.00;22.85;;;6.80;99.90;;;;;;5059642;28;20044;-74
2024/03/05 11:44:49;;;;;;;46.80;23.48;;;6.90;99.90;;;;;;5059974;28;20599;-73
2024/03/05 11:47:23;;;;;;;51.08;24.42;;;6.80;99.90;;;;;;5058712;28;20036;-74
2024/03/05 11:49:50;;;;;;;49.45;23.52;;;6.80;99.90;;;;;;5061483;28;20112;-74
2024/03/05 11:52:18;;;;;;;44.95;23.42;;;6.90;99.90;;;;;;5059943;28;20029;-74
2024/03/05 11:54:45;;;;;;;55.40;25.25;;;6.90;99.90;;;;;;5061604;28;20029;-74
2024/03/05 11:57:11;;;;;;;48.30;22.98;;;6.90;99.90;;;;;;5061118;28;20032;-74
2024/03/05 11:59:39;;;;;;;49.00;24.90;;;7.00;99.90;;;;;;5060110;28;20064;-76
2024/03/05 12:02:12;;;;;;;47.45;23.77;;;7.00;99.90;;;;;;5060608;28;20048;-74
2024/03/05 12:04:38;;;;;;;52.75;24.20;;;7.00;99.90;;;;;;5058046;28;20104;-75
2024/03/05 12:07:07;;;;;;;53.80;23.40;;;7.00;99.90;;;;;;5061615;28;20036;-74
2024/03/05 12:09:38;;;;;;;46.65;23.10;;;7.00;99.90;;;;;;5061455;28;20119;-74
2024/03/05 12:12:11;;;;;;;46.55;23.23;;;7.00;99.90;;;;;;5061661;28;20028;-75
2024/03/05 12:14:37;;;;;;;49.80;23.33;;;7.00;99.90;;;;;;5059315;28;20040;-74
2024/03/05 12:17:04;;;;;;;47.05;22.20;;;7.00;99.90;;;;;;5060498;28;20033;-74
2024/03/05 12:19:31;;;;;;;46.03;22.95;;;7.10;99.90;;;;;;5061033;28;20033;-74
2024/03/05 12:21:58;;;;;;;49.15;23.77;;;7.10;99.90;;;;;;5061764;28;20021;-75
2024/03/05 12:24:26;;;;;;;52.03;23.08;;;7.10;99.90;;;;;;5061230;28;20031;-74
2024/03/05 12:26:54;;;;;;;49.83;23.58;;;7.10;99.90;;;;;;5058772;28;20023;-74
2024/03/05 12:29:33;;;;;;;45.65;22.70;;;7.20;99.90;;;;;;5061861;28;20052;-74
2024/03/05 12:32:03;;;;;;;46.40;23.77;;;7.20;99.90;;;;;;5060918;28;20029;-73
2024/03/05 12:34:29;;;;;;;47.92;23.33;;;7.20;99.90;;;;;;5059990;28;20021;-74
2024/03/05 12:36:55;;;;;;;45.90;22.67;;;7.20;99.90;;;;;;5061263;28;20036;-74
2024/03/05 12:39:21;;;;;;;45.15;22.08;;;7.20;99.90;;;;;;5061715;28;20028;-74
2024/03/05 12:42:07;;;;;;;43.22;23.48;;;7.20;99.90;;;;;;5061419;28;20021;-73
2024/03/05 12:44:33;;;;;;;45.45;23.27;;;7.20;99.90;;;;;;5061545;28;20021;-75
2024/03/05 12:47:20;;;;;;;40.33;22.45;;;7.30;99.90;;;;;;5061576;28;20025;-74